Estación Meteorológica Peña el Pijo (Robertgarden) [ 01/30/23 15:42:37 CET ]

Fecha Hora Presion(HPa) Temp (°C) Humedad % Rocio (°C) Viento ( m/s) Direccion Lluvia 1Hora(mm) Lluvia 24H(mm) LLuvia Total(mm)
2010-Apr-03 01:01:12 1011.000 4.4 53 -4.4         104.63
2010-Apr-03 02:01:42 1010.500 2.9 58 -4.6         104.63
2010-Apr-03 03:03:15 1010.000 1.9 63 -4.4         104.63
2010-Apr-03 04:01:12 1009.100 1.3 67 -4.2         104.63
2010-Apr-03 05:01:16 1008.600 0.5 70 -4.3         104.63
2010-Apr-03 06:01:13 1008.600 0.4 70 -4.4         104.63
2010-Apr-03 07:01:12 1008.300 -0.4 73 -4.7         104.63
2010-Apr-03 08:01:13 1008.200 -0.4 73 -4.7         104.63
2010-Apr-03 09:01:13 1008.400 1.9 72 -2.6         104.63
2010-Apr-03 10:01:11 1007.700 7.2 57 -0.8         104.63
2010-Apr-03 11:01:14 1007.600 12.2 43 -0.1         104.63
2010-Apr-03 12:01:13 1007.300 17.3 34 1.2         104.63
2010-Apr-03 13:01:13 1006.900 16.9 32 0.0         104.63
2010-Apr-03 14:01:11 1006.600 19.3 27 -0.3         104.63
2010-Apr-03 15:01:11 1006.300 19.4 24 -1.9         104.63
2010-Apr-03 16:01:14 1005.800 18.8 23 -3.0         104.63
2010-Apr-03 17:01:13 1005.500 17.8 24 -3.3         104.63
2010-Apr-03 18:01:12 1005.400 18.4 22 -3.9         104.63
2010-Apr-03 19:01:12 1006.000 17.3 22 -4.8         104.63
2010-Apr-03 20:01:16 1006.300 13.6 30 -3.7         104.63
2010-Apr-03 21:01:16 1007.000 10.9 34 -4.5         104.63
2010-Apr-03 22:01:12 1007.800 7.8 45 -3.5         104.63
2010-Apr-03 23:01:14 1008.300 7.5 52 -1.8         104.63

Temperatura Máxima:19°    Temperatura Mínima:
Presión Máxima:1011.000 Hpa    Presión Mínima:1005.400 Hpa


Volver